sensor_id;sensor_type;location;lat;lon;timestamp;pressure;altitude;pressure_sealevel;temperature;humidity
47811;BME280;33575;52.600;7.318;2022-11-25T00:00:45;100904.60;;;5.36;96.65
47811;BME280;33575;52.600;7.318;2022-11-25T00:03:16;100899.08;;;5.39;96.47
47811;BME280;33575;52.600;7.318;2022-11-25T00:05:47;100893.23;;;5.42;95.72
47811;BME280;33575;52.600;7.318;2022-11-25T00:08:18;100887.49;;;5.45;96.06
47811;BME280;33575;52.600;7.318;2022-11-25T00:10:48;100888.92;;;5.44;96.21
47811;BME280;33575;52.600;7.318;2022-11-25T00:13:18;100882.72;;;5.49;95.76
47811;BME280;33575;52.600;7.318;2022-11-25T00:15:49;100886.80;;;5.53;95.31
47811;BME280;33575;52.600;7.318;2022-11-25T00:18:20;100888.37;;;5.54;95.74
47811;BME280;33575;52.600;7.318;2022-11-25T00:20:51;100883.72;;;5.51;95.62
47811;BME280;33575;52.600;7.318;2022-11-25T00:23:21;100885.34;;;5.55;95.81
47811;BME280;33575;52.600;7.318;2022-11-25T00:25:52;100882.34;;;5.52;96.41
47811;BME280;33575;52.600;7.318;2022-11-25T00:28:23;100882.71;;;5.52;96.49
47811;BME280;33575;52.600;7.318;2022-11-25T00:30:53;100881.01;;;5.55;95.98
47811;BME280;33575;52.600;7.318;2022-11-25T00:33:24;100876.43;;;5.57;95.92
47811;BME280;33575;52.600;7.318;2022-11-25T00:35:55;100874.89;;;5.58;96.05
47811;BME280;33575;52.600;7.318;2022-11-25T00:38:26;100866.68;;;5.60;95.63
47811;BME280;33575;52.600;7.318;2022-11-25T00:40:56;100863.39;;;5.58;95.84
47811;BME280;33575;52.600;7.318;2022-11-25T00:43:27;100861.21;;;5.59;96.22
47811;BME280;33575;52.600;7.318;2022-11-25T00:45:58;100860.65;;;5.55;96.09
47811;BME280;33575;52.600;7.318;2022-11-25T00:48:28;100859.41;;;5.55;96.03
47811;BME280;33575;52.600;7.318;2022-11-25T00:50:59;100860.34;;;5.60;96.01
47811;BME280;33575;52.600;7.318;2022-11-25T00:53:29;100866.42;;;5.63;95.73
47811;BME280;33575;52.600;7.318;2022-11-25T00:56:00;100862.33;;;5.69;95.27
47811;BME280;33575;52.600;7.318;2022-11-25T00:58:31;100861.76;;;5.67;95.59
47811;BME280;33575;52.600;7.318;2022-11-25T01:01:02;100862.53;;;5.72;95.24
47811;BME280;33575;52.600;7.318;2022-11-25T01:03:32;100862.14;;;5.71;95.30
47811;BME280;33575;52.600;7.318;2022-11-25T01:06:05;100858.51;;;5.71;95.72
47811;BME280;33575;52.600;7.318;2022-11-25T01:08:35;100852.54;;;5.69;95.86
47811;BME280;33575;52.600;7.318;2022-11-25T01:11:07;100851.64;;;5.71;95.85
47811;BME280;33575;52.600;7.318;2022-11-25T01:13:35;100852.36;;;5.69;95.87
47811;BME280;33575;52.600;7.318;2022-11-25T01:16:08;100854.53;;;5.75;95.33
47811;BME280;33575;52.600;7.318;2022-11-25T01:18:37;100857.55;;;5.78;95.29
47811;BME280;33575;52.600;7.318;2022-11-25T01:21:09;100857.81;;;5.82;94.91
47811;BME280;33575;52.600;7.318;2022-11-25T01:23:39;100857.80;;;5.83;95.24
47811;BME280;33575;52.600;7.318;2022-11-25T01:26:11;100860.73;;;5.86;95.24
47811;BME280;33575;52.600;7.318;2022-11-25T01:28:39;100863.75;;;5.84;95.31
47811;BME280;33575;52.600;7.318;2022-11-25T01:31:12;100861.10;;;5.87;94.64
47811;BME280;33575;52.600;7.318;2022-11-25T01:33:41;100861.76;;;5.82;95.79
47811;BME280;33575;52.600;7.318;2022-11-25T01:36:13;100857.95;;;5.81;95.75
47811;BME280;33575;52.600;7.318;2022-11-25T01:38:42;100854.91;;;5.76;96.37
47811;BME280;33575;52.600;7.318;2022-11-25T01:41:13;100854.39;;;5.83;95.46
47811;BME280;33575;52.600;7.318;2022-11-25T01:46:20;100849.72;;;5.78;95.97
47811;BME280;33575;52.600;7.318;2022-11-25T01:48:48;100850.15;;;5.83;95.47
47811;BME280;33575;52.600;7.318;2022-11-25T01:51:21;100851.31;;;5.82;95.92
47811;BME280;33575;52.600;7.318;2022-11-25T01:53:46;100853.62;;;5.82;96.09
47811;BME280;33575;52.600;7.318;2022-11-25T01:56:17;100852.42;;;5.81;96.37
47811;BME280;33575;52.600;7.318;2022-11-25T01:58:48;100855.23;;;5.80;96.08
47811;BME280;33575;52.600;7.318;2022-11-25T02:01:18;100847.34;;;5.85;96.16
47811;BME280;33575;52.600;7.318;2022-11-25T02:03:52;100853.81;;;5.86;95.78
47811;BME280;33575;52.600;7.318;2022-11-25T02:06:22;100854.83;;;5.83;97.22
47811;BME280;33575;52.600;7.318;2022-11-25T02:08:53;100850.06;;;5.86;96.94
47811;BME280;33575;52.600;7.318;2022-11-25T02:11:23;100850.94;;;5.84;97.75
47811;BME280;33575;52.600;7.318;2022-11-25T02:13:52;100854.89;;;5.85;98.03
47811;BME280;33575;52.600;7.318;2022-11-25T02:16:22;100856.80;;;5.86;98.03
47811;BME280;33575;52.600;7.318;2022-11-25T02:18:53;100854.43;;;5.93;97.13
47811;BME280;33575;52.600;7.318;2022-11-25T02:21:40;100849.63;;;5.98;97.39
47811;BME280;33575;52.600;7.318;2022-11-25T02:26:38;100854.10;;;6.00;97.35
47811;BME280;33575;52.600;7.318;2022-11-25T02:29:02;100853.04;;;6.03;96.98
47811;BME280;33575;52.600;7.318;2022-11-25T02:31:27;100849.19;;;6.09;96.77
47811;BME280;33575;52.600;7.318;2022-11-25T02:34:02;100850.08;;;6.13;96.57
47811;BME280;33575;52.600;7.318;2022-11-25T02:36:29;100848.80;;;6.15;96.34
47811;BME280;33575;52.600;7.318;2022-11-25T02:39:04;100849.91;;;6.16;97.04
47811;BME280;33575;52.600;7.318;2022-11-25T02:41:31;100846.50;;;6.23;96.27
47811;BME280;33575;52.600;7.318;2022-11-25T02:44:01;100847.86;;;6.22;96.99
47811;BME280;33575;52.600;7.318;2022-11-25T02:46:32;100847.95;;;6.19;97.65
47811;BME280;33575;52.600;7.318;2022-11-25T02:49:15;100843.03;;;6.21;97.09
47811;BME280;33575;52.600;7.318;2022-11-25T02:51:47;100843.35;;;6.25;96.64
47811;BME280;33575;52.600;7.318;2022-11-25T02:54:13;100844.08;;;6.22;97.44
47811;BME280;33575;52.600;7.318;2022-11-25T02:59:06;100840.07;;;6.24;97.68
47811;BME280;33575;52.600;7.318;2022-11-25T03:04:08;100843.79;;;6.42;97.35
47811;BME280;33575;52.600;7.318;2022-11-25T03:06:36;100845.51;;;6.43;98.23
47811;BME280;33575;52.600;7.318;2022-11-25T03:11:37;100843.97;;;6.50;96.55
47811;BME280;33575;52.600;7.318;2022-11-25T03:14:09;100841.82;;;6.46;96.58
47811;BME280;33575;52.600;7.318;2022-11-25T03:16:38;100842.04;;;6.46;96.47
47811;BME280;33575;52.600;7.318;2022-11-25T03:19:18;100841.64;;;6.44;95.88
47811;BME280;33575;52.600;7.318;2022-11-25T03:24:10;100836.45;;;6.38;96.29
47811;BME280;33575;52.600;7.318;2022-11-25T03:26:46;100835.84;;;6.34;97.08
47811;BME280;33575;52.600;7.318;2022-11-25T03:29:12;100837.85;;;6.33;96.87
47811;BME280;33575;52.600;7.318;2022-11-25T03:31:45;100841.13;;;6.31;97.48
47811;BME280;33575;52.600;7.318;2022-11-25T03:34:13;100836.70;;;6.39;96.62
47811;BME280;33575;52.600;7.318;2022-11-25T03:36:43;100838.58;;;6.35;97.59
47811;BME280;33575;52.600;7.318;2022-11-25T03:41:45;100837.35;;;6.38;98.11
47811;BME280;33575;52.600;7.318;2022-11-25T03:44:17;100839.70;;;6.43;97.64
47811;BME280;33575;52.600;7.318;2022-11-25T03:46:47;100837.49;;;6.47;97.92
47811;BME280;33575;52.600;7.318;2022-11-25T03:49:17;100840.68;;;6.58;99.82
47811;BME280;33575;52.600;7.318;2022-11-25T03:54:28;100840.35;;;6.60;97.92
47811;BME280;33575;52.600;7.318;2022-11-25T03:56:48;100843.95;;;6.55;98.43
47811;BME280;33575;52.600;7.318;2022-11-25T03:59:20;100843.56;;;6.58;97.81
47811;BME280;33575;52.600;7.318;2022-11-25T04:01:50;100841.56;;;6.61;96.75
47811;BME280;33575;52.600;7.318;2022-11-25T04:04:20;100840.73;;;6.58;97.44
47811;BME280;33575;52.600;7.318;2022-11-25T04:06:54;100838.76;;;6.59;97.44
47811;BME280;33575;52.600;7.318;2022-11-25T04:09:36;100838.20;;;6.62;97.29
47811;BME280;33575;52.600;7.318;2022-11-25T04:11:52;100839.54;;;6.62;96.82
47811;BME280;33575;52.600;7.318;2022-11-25T04:14:24;100843.00;;;6.58;97.60
47811;BME280;33575;52.600;7.318;2022-11-25T04:16:53;100844.45;;;6.60;97.89
47811;BME280;33575;52.600;7.318;2022-11-25T04:19:24;100843.61;;;6.62;97.30
47811;BME280;33575;52.600;7.318;2022-11-25T04:21:54;100847.16;;;6.57;98.54
47811;BME280;33575;52.600;7.318;2022-11-25T04:24:30;100847.62;;;6.56;98.50
47811;BME280;33575;52.600;7.318;2022-11-25T04:26:55;100851.50;;;6.56;98.59
47811;BME280;33575;52.600;7.318;2022-11-25T04:29:26;100858.26;;;6.57;98.79
47811;BME280;33575;52.600;7.318;2022-11-25T04:31:57;100859.45;;;6.52;99.79
47811;BME280;33575;52.600;7.318;2022-11-25T04:34:27;100860.77;;;6.57;99.69
47811;BME280;33575;52.600;7.318;2022-11-25T04:36:58;100860.44;;;6.48;100.00
47811;BME280;33575;52.600;7.318;2022-11-25T04:39:29;100865.37;;;6.49;100.00
47811;BME280;33575;52.600;7.318;2022-11-25T04:41:59;100863.56;;;6.48;100.00
47811;BME280;33575;52.600;7.318;2022-11-25T04:44:30;100868.91;;;6.53;100.00
47811;BME280;33575;52.600;7.318;2022-11-25T04:47:01;100868.39;;;6.49;100.00
47811;BME280;33575;52.600;7.318;2022-11-25T04:49:31;100870.89;;;6.50;100.00
47811;BME280;33575;52.600;7.318;2022-11-25T04:52:02;100869.89;;;6.50;100.00
47811;BME280;33575;52.600;7.318;2022-11-25T04:54:33;100870.62;;;6.50;100.00
47811;BME280;33575;52.600;7.318;2022-11-25T04:57:11;100869.72;;;6.47;100.00
47811;BME280;33575;52.600;7.318;2022-11-25T04:59:39;100868.10;;;6.49;100.00
47811;BME280;33575;52.600;7.318;2022-11-25T05:02:11;100862.30;;;6.46;100.00
47811;BME280;33575;52.600;7.318;2022-11-25T05:04:36;100864.45;;;6.41;100.00
47811;BME280;33575;52.600;7.318;2022-11-25T05:07:06;100863.85;;;6.51;100.00
47811;BME280;33575;52.600;7.318;2022-11-25T05:09:37;100868.26;;;6.58;100.00
47811;BME280;33575;52.600;7.318;2022-11-25T05:12:10;100870.04;;;6.65;100.00
47811;BME280;33575;52.600;7.318;2022-11-25T05:14:44;100873.10;;;6.59;100.00
47811;BME280;33575;52.600;7.318;2022-11-25T05:17:12;100876.00;;;6.63;100.00
47811;BME280;33575;52.600;7.318;2022-11-25T05:19:44;100873.14;;;6.58;100.00
47811;BME280;33575;52.600;7.318;2022-11-25T05:22:25;100876.03;;;6.54;100.00
47811;BME280;33575;52.600;7.318;2022-11-25T05:24:41;100874.32;;;6.56;100.00
47811;BME280;33575;52.600;7.318;2022-11-25T05:27:11;100882.07;;;6.55;100.00
47811;BME280;33575;52.600;7.318;2022-11-25T05:29:42;100878.59;;;6.53;100.00
47811;BME280;33575;52.600;7.318;2022-11-25T05:32:13;100876.64;;;6.50;100.00
47811;BME280;33575;52.600;7.318;2022-11-25T05:34:43;100873.06;;;6.47;100.00
47811;BME280;33575;52.600;7.318;2022-11-25T05:37:14;100874.79;;;6.51;100.00
47811;BME280;33575;52.600;7.318;2022-11-25T05:39:45;100871.26;;;6.54;100.00
47811;BME280;33575;52.600;7.318;2022-11-25T05:44:46;100865.77;;;6.58;100.00
47811;BME280;33575;52.600;7.318;2022-11-25T05:47:17;100861.32;;;6.67;100.00
47811;BME280;33575;52.600;7.318;2022-11-25T05:49:47;100863.74;;;6.68;100.00
47811;BME280;33575;52.600;7.318;2022-11-25T05:52:18;100864.55;;;6.67;100.00
47811;BME280;33575;52.600;7.318;2022-11-25T05:54:49;100866.12;;;6.73;100.00
47811;BME280;33575;52.600;7.318;2022-11-25T05:57:19;100869.63;;;6.73;100.00
47811;BME280;33575;52.600;7.318;2022-11-25T05:59:50;100873.68;;;6.73;100.00
47811;BME280;33575;52.600;7.318;2022-11-25T06:02:21;100883.52;;;6.81;100.00
47811;BME280;33575;52.600;7.318;2022-11-25T06:04:51;100891.18;;;6.78;100.00
47811;BME280;33575;52.600;7.318;2022-11-25T06:07:22;100894.34;;;6.80;100.00
47811;BME280;33575;52.600;7.318;2022-11-25T06:09:52;100898.27;;;6.84;100.00
47811;BME280;33575;52.600;7.318;2022-11-25T06:12:23;100905.01;;;6.97;100.00
47811;BME280;33575;52.600;7.318;2022-11-25T06:14:54;100907.74;;;7.05;100.00
47811;BME280;33575;52.600;7.318;2022-11-25T06:17:24;100911.19;;;7.11;100.00
47811;BME280;33575;52.600;7.318;2022-11-25T06:19:55;100916.46;;;7.12;99.80
47811;BME280;33575;52.600;7.318;2022-11-25T06:22:26;100924.43;;;7.13;100.00
47811;BME280;33575;52.600;7.318;2022-11-25T06:25:01;100926.91;;;7.16;99.67
47811;BME280;33575;52.600;7.318;2022-11-25T06:27:26;100922.47;;;7.16;100.00
47811;BME280;33575;52.600;7.318;2022-11-25T06:29:57;100919.63;;;6.94;100.00
47811;BME280;33575;52.600;7.318;2022-11-25T06:32:28;100926.68;;;7.18;100.00
47811;BME280;33575;52.600;7.318;2022-11-25T06:34:58;100928.75;;;7.26;99.37
47811;BME280;33575;52.600;7.318;2022-11-25T06:37:29;100935.85;;;7.21;99.10
47811;BME280;33575;52.600;7.318;2022-11-25T06:40:00;100938.48;;;7.20;100.00
47811;BME280;33575;52.600;7.318;2022-11-25T06:42:30;100941.06;;;7.23;100.00
47811;BME280;33575;52.600;7.318;2022-11-25T06:45:01;100941.72;;;7.23;100.00
47811;BME280;33575;52.600;7.318;2022-11-25T06:47:31;100946.84;;;7.26;100.00
47811;BME280;33575;52.600;7.318;2022-11-25T06:50:02;100947.71;;;7.20;100.00
47811;BME280;33575;52.600;7.318;2022-11-25T06:52:33;100948.69;;;7.21;100.00
47811;BME280;33575;52.600;7.318;2022-11-25T06:55:04;100956.04;;;7.26;100.00
47811;BME280;33575;52.600;7.318;2022-11-25T06:57:34;100959.06;;;7.24;100.00
47811;BME280;33575;52.600;7.318;2022-11-25T07:00:06;100965.13;;;7.20;100.00
47811;BME280;33575;52.600;7.318;2022-11-25T07:02:40;100970.07;;;7.25;100.00
47811;BME280;33575;52.600;7.318;2022-11-25T07:05:07;100974.68;;;7.25;100.00
47811;BME280;33575;52.600;7.318;2022-11-25T07:07:37;100984.47;;;7.26;100.00
47811;BME280;33575;52.600;7.318;2022-11-25T07:10:08;100991.95;;;7.34;100.00
47811;BME280;33575;52.600;7.318;2022-11-25T07:12:37;100996.95;;;7.26;100.00
47811;BME280;33575;52.600;7.318;2022-11-25T07:15:09;101003.70;;;7.40;100.00
47811;BME280;33575;52.600;7.318;2022-11-25T07:17:39;101006.53;;;7.39;100.00
47811;BME280;33575;52.600;7.318;2022-11-25T07:20:10;101009.13;;;7.45;100.00
47811;BME280;33575;52.600;7.318;2022-11-25T07:22:39;101014.03;;;7.52;99.29
47811;BME280;33575;52.600;7.318;2022-11-25T07:25:10;101013.39;;;7.48;100.00
47811;BME280;33575;52.600;7.318;2022-11-25T07:27:40;101013.61;;;7.48;100.00
47811;BME280;33575;52.600;7.318;2022-11-25T07:30:17;101015.92;;;7.54;99.71
47811;BME280;33575;52.600;7.318;2022-11-25T07:32:42;101016.48;;;7.58;99.99
47811;BME280;33575;52.600;7.318;2022-11-25T07:35:13;101018.65;;;7.58;99.91
47811;BME280;33575;52.600;7.318;2022-11-25T07:37:43;101017.90;;;7.54;100.00
47811;BME280;33575;52.600;7.318;2022-11-25T07:40:14;101027.23;;;7.60;100.00
47811;BME280;33575;52.600;7.318;2022-11-25T07:42:44;101033.46;;;7.63;100.00
47811;BME280;33575;52.600;7.318;2022-11-25T07:45:15;101034.38;;;7.66;100.00
47811;BME280;33575;52.600;7.318;2022-11-25T07:47:45;101036.59;;;7.65;100.00
47811;BME280;33575;52.600;7.318;2022-11-25T07:50:16;101036.85;;;7.58;100.00
47811;BME280;33575;52.600;7.318;2022-11-25T07:52:46;101039.00;;;7.63;100.00
47811;BME280;33575;52.600;7.318;2022-11-25T07:55:17;101038.04;;;7.66;100.00
47811;BME280;33575;52.600;7.318;2022-11-25T07:57:48;101041.07;;;7.71;100.00
47811;BME280;33575;52.600;7.318;2022-11-25T08:00:19;101047.37;;;7.84;100.00
47811;BME280;33575;52.600;7.318;2022-11-25T08:02:48;101049.64;;;7.93;100.00
47811;BME280;33575;52.600;7.318;2022-11-25T08:05:19;101048.45;;;7.94;100.00
47811;BME280;33575;52.600;7.318;2022-11-25T08:07:50;101049.50;;;8.00;100.00
47811;BME280;33575;52.600;7.318;2022-11-25T08:10:20;101047.87;;;7.95;99.46
47811;BME280;33575;52.600;7.318;2022-11-25T08:12:51;101049.21;;;7.90;100.00
47811;BME280;33575;52.600;7.318;2022-11-25T08:15:21;101049.62;;;7.84;99.59
47811;BME280;33575;52.600;7.318;2022-11-25T08:17:52;101050.10;;;7.78;100.00
47811;BME280;33575;52.600;7.318;2022-11-25T08:20:23;101057.62;;;7.81;100.00
47811;BME280;33575;52.600;7.318;2022-11-25T08:22:53;101060.55;;;7.87;100.00
47811;BME280;33575;52.600;7.318;2022-11-25T08:25:24;101067.51;;;7.99;99.64
47811;BME280;33575;52.600;7.318;2022-11-25T08:27:55;101065.59;;;8.07;99.77
47811;BME280;33575;52.600;7.318;2022-11-25T08:30:26;101069.96;;;8.11;100.00
47811;BME280;33575;52.600;7.318;2022-11-25T08:32:56;101071.36;;;8.07;99.49
47811;BME280;33575;52.600;7.318;2022-11-25T08:35:26;101076.48;;;8.15;100.00
47811;BME280;33575;52.600;7.318;2022-11-25T08:37:57;101074.97;;;8.22;99.20
47811;BME280;33575;52.600;7.318;2022-11-25T08:40:27;101075.59;;;8.24;98.92
47811;BME280;33575;52.600;7.318;2022-11-25T08:42:58;101080.07;;;8.27;99.30
47811;BME280;33575;52.600;7.318;2022-11-25T08:45:29;101084.72;;;8.28;99.77
47811;BME280;33575;52.600;7.318;2022-11-25T08:47:59;101090.07;;;8.34;98.74
47811;BME280;33575;52.600;7.318;2022-11-25T08:50:30;101093.64;;;8.39;98.81
47811;BME280;33575;52.600;7.318;2022-11-25T08:53:01;101091.79;;;8.42;98.94
47811;BME280;33575;52.600;7.318;2022-11-25T08:55:31;101097.41;;;8.46;98.18
47811;BME280;33575;52.600;7.318;2022-11-25T08:58:01;101102.73;;;8.50;98.29
47811;BME280;33575;52.600;7.318;2022-11-25T09:00:32;101107.12;;;8.47;99.14
47811;BME280;33575;52.600;7.318;2022-11-25T09:03:06;101106.35;;;8.50;98.71
47811;BME280;33575;52.600;7.318;2022-11-25T09:05:34;101110.60;;;8.55;98.62
47811;BME280;33575;52.600;7.318;2022-11-25T09:08:05;101112.43;;;8.55;98.18
47811;BME280;33575;52.600;7.318;2022-11-25T09:10:36;101119.77;;;8.48;99.47
47811;BME280;33575;52.600;7.318;2022-11-25T09:13:05;101121.92;;;8.55;98.38
47811;BME280;33575;52.600;7.318;2022-11-25T09:15:35;101121.77;;;8.54;98.85
47811;BME280;33575;52.600;7.318;2022-11-25T09:18:08;101122.93;;;8.50;98.79
47811;BME280;33575;52.600;7.318;2022-11-25T09:20:38;101121.28;;;8.47;99.68
47811;BME280;33575;52.600;7.318;2022-11-25T09:23:07;101125.09;;;8.39;99.58
47811;BME280;33575;52.600;7.318;2022-11-25T09:25:38;101131.23;;;8.45;99.39
47811;BME280;33575;52.600;7.318;2022-11-25T09:28:08;101131.61;;;8.44;98.91
47811;BME280;33575;52.600;7.318;2022-11-25T09:30:39;101133.51;;;8.54;99.26
47811;BME280;33575;52.600;7.318;2022-11-25T09:33:10;101138.88;;;8.63;99.20
47811;BME280;33575;52.600;7.318;2022-11-25T09:35:40;101135.99;;;8.63;98.90
47811;BME280;33575;52.600;7.318;2022-11-25T09:38:11;101142.72;;;8.57;99.04
47811;BME280;33575;52.600;7.318;2022-11-25T09:40:44;101143.42;;;8.54;99.68
47811;BME280;33575;52.600;7.318;2022-11-25T09:43:19;101156.23;;;8.60;100.00
47811;BME280;33575;52.600;7.318;2022-11-25T09:45:49;101164.76;;;8.70;100.00
47811;BME280;33575;52.600;7.318;2022-11-25T09:48:25;101166.51;;;8.81;100.00
47811;BME280;33575;52.600;7.318;2022-11-25T09:50:52;101164.60;;;8.79;99.35
47811;BME280;33575;52.600;7.318;2022-11-25T09:53:21;101164.60;;;8.81;98.98
47811;BME280;33575;52.600;7.318;2022-11-25T09:55:46;101165.50;;;8.86;98.82
47811;BME280;33575;52.600;7.318;2022-11-25T09:58:23;101170.65;;;8.81;98.64
47811;BME280;33575;52.600;7.318;2022-11-25T10:00:47;101177.23;;;8.74;98.93
47811;BME280;33575;52.600;7.318;2022-11-25T10:03:24;101176.36;;;8.83;99.14
47811;BME280;33575;52.600;7.318;2022-11-25T10:05:52;101181.05;;;8.89;99.24
47811;BME280;33575;52.600;7.318;2022-11-25T10:08:20;101181.22;;;8.96;98.14
47811;BME280;33575;52.600;7.318;2022-11-25T10:10:54;101183.97;;;8.85;99.03
47811;BME280;33575;52.600;7.318;2022-11-25T10:13:23;101188.66;;;8.90;100.00
47811;BME280;33575;52.600;7.318;2022-11-25T10:15:49;101191.58;;;8.97;100.00
47811;BME280;33575;52.600;7.318;2022-11-25T10:18:24;101190.75;;;8.92;98.82
47811;BME280;33575;52.600;7.318;2022-11-25T10:20:51;101197.11;;;8.99;99.38
47811;BME280;33575;52.600;7.318;2022-11-25T10:23:29;101197.32;;;9.02;98.50
47811;BME280;33575;52.600;7.318;2022-11-25T10:25:54;101199.77;;;9.11;98.47
47811;BME280;33575;52.600;7.318;2022-11-25T10:28:23;101199.71;;;8.93;99.43
47811;BME280;33575;52.600;7.318;2022-11-25T10:30:59;101203.79;;;8.92;98.96
47811;BME280;33575;52.600;7.318;2022-11-25T10:33:27;101204.20;;;8.90;99.26
47811;BME280;33575;52.600;7.318;2022-11-25T10:35:57;101205.68;;;8.99;98.60
47811;BME280;33575;52.600;7.318;2022-11-25T10:38:28;101205.63;;;8.93;98.99
47811;BME280;33575;52.600;7.318;2022-11-25T10:40:54;101199.08;;;8.89;98.55
47811;BME280;33575;52.600;7.318;2022-11-25T10:43:31;101210.35;;;8.68;99.55
47811;BME280;33575;52.600;7.318;2022-11-25T10:46:01;101207.57;;;8.81;99.57
47811;BME280;33575;52.600;7.318;2022-11-25T10:51:07;101215.60;;;8.89;97.58
47811;BME280;33575;52.600;7.318;2022-11-25T10:53:27;101214.70;;;8.84;99.61
47811;BME280;33575;52.600;7.318;2022-11-25T10:56:00;101219.95;;;8.81;100.00
47811;BME280;33575;52.600;7.318;2022-11-25T10:58:31;101222.88;;;8.62;100.00
47811;BME280;33575;52.600;7.318;2022-11-25T11:01:05;101221.45;;;8.87;98.96
47811;BME280;33575;52.600;7.318;2022-11-25T11:03:29;101221.58;;;8.83;98.54
47811;BME280;33575;52.600;7.318;2022-11-25T11:06:00;101225.32;;;8.95;97.87
47811;BME280;33575;52.600;7.318;2022-11-25T11:08:36;101231.17;;;9.01;96.78
47811;BME280;33575;52.600;7.318;2022-11-25T11:11:13;101232.58;;;8.98;97.53
47811;BME280;33575;52.600;7.318;2022-11-25T11:13:31;101234.60;;;8.78;97.74
47811;BME280;33575;52.600;7.318;2022-11-25T11:16:03;101237.64;;;8.79;97.71
47811;BME280;33575;52.600;7.318;2022-11-25T11:18:39;101240.55;;;9.03;97.49
47811;BME280;33575;52.600;7.318;2022-11-25T11:21:05;101239.36;;;8.92;97.91
47811;BME280;33575;52.600;7.318;2022-11-25T11:26:06;101251.27;;;8.98;97.70
47811;BME280;33575;52.600;7.318;2022-11-25T11:28:39;101256.22;;;8.93;98.11
47811;BME280;33575;52.600;7.318;2022-11-25T11:33:40;101256.30;;;9.06;97.40
47811;BME280;33575;52.600;7.318;2022-11-25T11:36:19;101258.92;;;9.12;97.30
47811;BME280;33575;52.600;7.318;2022-11-25T11:38:44;101258.25;;;9.10;97.30
47811;BME280;33575;52.600;7.318;2022-11-25T11:41:14;101263.02;;;9.24;97.40
47811;BME280;33575;52.600;7.318;2022-11-25T11:43:47;101263.99;;;9.30;96.59
47811;BME280;33575;52.600;7.318;2022-11-25T11:46:18;101263.75;;;9.29;96.61
47811;BME280;33575;52.600;7.318;2022-11-25T11:48:44;101268.43;;;9.30;97.10
47811;BME280;33575;52.600;7.318;2022-11-25T11:51:18;101269.45;;;9.36;96.25
47811;BME280;33575;52.600;7.318;2022-11-25T11:53:47;101276.25;;;9.42;97.23
47811;BME280;33575;52.600;7.318;2022-11-25T11:56:19;101279.00;;;9.36;97.09
47811;BME280;33575;52.600;7.318;2022-11-25T11:58:50;101278.46;;;9.44;97.40
47811;BME280;33575;52.600;7.318;2022-11-25T12:01:23;101285.77;;;9.59;96.21
47811;BME280;33575;52.600;7.318;2022-11-25T12:03:51;101293.88;;;9.68;94.84
47811;BME280;33575;52.600;7.318;2022-11-25T12:06:14;101294.43;;;9.63;94.75
47811;BME280;33575;52.600;7.318;2022-11-25T12:08:46;101289.97;;;9.62;94.90
47811;BME280;33575;52.600;7.318;2022-11-25T12:11:19;101292.32;;;9.73;95.26
47811;BME280;33575;52.600;7.318;2022-11-25T12:13:48;101293.31;;;9.80;95.15
47811;BME280;33575;52.600;7.318;2022-11-25T12:16:20;101293.41;;;9.56;95.17
47811;BME280;33575;52.600;7.318;2022-11-25T12:18:49;101298.68;;;9.70;94.95
47811;BME280;33575;52.600;7.318;2022-11-25T12:21:27;101301.04;;;9.74;94.26
47811;BME280;33575;52.600;7.318;2022-11-25T12:23:52;101305.18;;;9.72;94.06
47811;BME280;33575;52.600;7.318;2022-11-25T12:26:21;101311.89;;;9.71;94.36
47811;BME280;33575;52.600;7.318;2022-11-25T12:28:52;101307.48;;;9.69;94.50
47811;BME280;33575;52.600;7.318;2022-11-25T12:31:23;101315.46;;;9.67;93.96
47811;BME280;33575;52.600;7.318;2022-11-25T12:33:58;101317.69;;;9.69;94.62
47811;BME280;33575;52.600;7.318;2022-11-25T12:36:26;101314.69;;;9.54;94.42
47811;BME280;33575;52.600;7.318;2022-11-25T12:38:55;101319.16;;;9.67;94.75
47811;BME280;33575;52.600;7.318;2022-11-25T12:41:26;101320.23;;;9.54;94.82
47811;BME280;33575;52.600;7.318;2022-11-25T12:43:55;101319.29;;;9.52;96.11
47811;BME280;33575;52.600;7.318;2022-11-25T12:46:26;101327.22;;;9.76;95.36
47811;BME280;33575;52.600;7.318;2022-11-25T12:48:54;101328.89;;;9.69;96.73
47811;BME280;33575;52.600;7.318;2022-11-25T12:51:34;101331.64;;;9.82;93.70
47811;BME280;33575;52.600;7.318;2022-11-25T12:54:02;101335.14;;;9.78;93.94
47811;BME280;33575;52.600;7.318;2022-11-25T12:56:32;101336.92;;;9.74;93.32
47811;BME280;33575;52.600;7.318;2022-11-25T12:59:09;101344.31;;;9.79;93.60
47811;BME280;33575;52.600;7.318;2022-11-25T13:06:40;101356.18;;;9.73;93.12
47811;BME280;33575;52.600;7.318;2022-11-25T13:09:00;101364.24;;;9.67;93.02
47811;BME280;33575;52.600;7.318;2022-11-25T13:11:43;101361.95;;;9.61;92.62
47811;BME280;33575;52.600;7.318;2022-11-25T13:14:03;101366.35;;;9.60;93.66
47811;BME280;33575;52.600;7.318;2022-11-25T13:16:29;101365.91;;;9.60;93.79
47811;BME280;33575;52.600;7.318;2022-11-25T13:18:59;101370.45;;;9.61;92.97
47811;BME280;33575;52.600;7.318;2022-11-25T13:21:29;101374.60;;;9.57;95.99
47811;BME280;33575;52.600;7.318;2022-11-25T13:24:00;101380.22;;;9.76;95.67
47811;BME280;33575;52.600;7.318;2022-11-25T13:26:44;101381.17;;;9.89;95.10
47811;BME280;33575;52.600;7.318;2022-11-25T13:29:05;101382.68;;;9.94;95.05
47811;BME280;33575;52.600;7.318;2022-11-25T13:31:32;101386.58;;;9.98;94.38
47811;BME280;33575;52.600;7.318;2022-11-25T13:34:15;101387.37;;;10.09;94.51
47811;BME280;33575;52.600;7.318;2022-11-25T13:39:10;101394.49;;;10.14;94.66
47811;BME280;33575;52.600;7.318;2022-11-25T13:41:37;101394.99;;;10.08;94.24
47811;BME280;33575;52.600;7.318;2022-11-25T13:44:09;101398.19;;;10.12;94.31
47811;BME280;33575;52.600;7.318;2022-11-25T13:46:38;101405.48;;;10.16;93.53
47811;BME280;33575;52.600;7.318;2022-11-25T13:49:06;101406.93;;;10.18;93.79
47811;BME280;33575;52.600;7.318;2022-11-25T13:51:35;101409.34;;;10.21;93.79